AAL433 KFLL-KDCA
Flight info
| Callsign | AAL433 |
|---|---|
| Flight time | 2h 0m |
| Altitude | 37000 |
| Route | FEALX2 ETECK GRUBR Y299 SEELO GARIC RANAY TANJA WAVES CAPSS4 |
| Aircraft | A319/M-SDE3FGHIRWY/LB1 |
Departure
| Time | 2026-05-07 22:14 |
|---|---|
| Airport | Fort Lauderdale Hollywood International Airport (KFLL) |
Arrival
| Time | 2026-05-08 00:14 |
|---|---|
| Airport | Ronald Reagan Washington National Airport (KDCA) |
| Time | Latitude | Longitude | Altitude | Speed | Heading |
|---|---|---|---|---|---|
| 2026-05-07 21:45 | 26.07324 | -80.14562 | 17 ft | 0 kts | 233° |
| 2026-05-07 21:58 | 26.07330 | -80.14553 | 17 ft | 4 kts | 233° |
| 2026-05-07 21:59 | 26.07345 | -80.14531 | 17 ft | 2 kts | 233° |
| 2026-05-07 21:59 | 26.07362 | -80.14513 | 18 ft | 4 kts | 198° |
| 2026-05-07 21:59 | 26.07385 | -80.14513 | 16 ft | 4 kts | 141° |
| 2026-05-07 21:59 | 26.07399 | -80.14536 | 16 ft | 4 kts | 113° |
| 2026-05-07 22:00 | 26.07402 | -80.14544 | 16 ft | 0 kts | 113° |
| 2026-05-07 22:03 | 26.07402 | -80.14543 | 16 ft | 0 kts | 113° |
| 2026-05-07 22:03 | 26.07399 | -80.14536 | 25 ft | 2 kts | 111° |
| 2026-05-07 22:03 | 26.07401 | -80.14521 | 20 ft | 2 kts | 75° |
| 2026-05-07 22:03 | 26.07409 | -80.14503 | 17 ft | 3 kts | 62° |
| 2026-05-07 22:04 | 26.07428 | -80.14492 | 16 ft | 3 kts | 12° |
| 2026-05-07 22:04 | 26.07452 | -80.14490 | 16 ft | 4 kts | 4° |
| 2026-05-07 22:04 | 26.07476 | -80.14502 | 16 ft | 4 kts | 311° |
| 2026-05-07 22:04 | 26.07483 | -80.14531 | 17 ft | 4 kts | 275° |
| 2026-05-07 22:05 | 26.07486 | -80.14569 | 16 ft | 5 kts | 275° |
| 2026-05-07 22:05 | 26.07489 | -80.14612 | 16 ft | 6 kts | 270° |
| 2026-05-07 22:05 | 26.07488 | -80.14661 | 16 ft | 7 kts | 269° |
| 2026-05-07 22:05 | 26.07487 | -80.14717 | 16 ft | 8 kts | 269° |
| 2026-05-07 22:06 | 26.07487 | -80.14779 | 16 ft | 8 kts | 269° |
| 2026-05-07 22:06 | 26.07487 | -80.14846 | 16 ft | 9 kts | 270° |
| 2026-05-07 22:06 | 26.07487 | -80.14919 | 16 ft | 10 kts | 270° |
| 2026-05-07 22:06 | 26.07488 | -80.14997 | 16 ft | 10 kts | 270° |
| 2026-05-07 22:07 | 26.07489 | -80.15079 | 16 ft | 11 kts | 270° |
| 2026-05-07 22:07 | 26.07490 | -80.15167 | 16 ft | 12 kts | 270° |
| 2026-05-07 22:07 | 26.07490 | -80.15260 | 16 ft | 12 kts | 270° |
| 2026-05-07 22:07 | 26.07490 | -80.15358 | 16 ft | 13 kts | 270° |
| 2026-05-07 22:08 | 26.07491 | -80.15460 | 16 ft | 13 kts | 270° |
| 2026-05-07 22:08 | 26.07491 | -80.15566 | 16 ft | 14 kts | 270° |
| 2026-05-07 22:08 | 26.07491 | -80.15674 | 16 ft | 14 kts | 271° |
| 2026-05-07 22:08 | 26.07494 | -80.15789 | 16 ft | 15 kts | 271° |
| 2026-05-07 22:09 | 26.07493 | -80.15905 | 16 ft | 15 kts | 269° |
| 2026-05-07 22:09 | 26.07493 | -80.16025 | 16 ft | 16 kts | 270° |
| 2026-05-07 22:09 | 26.07493 | -80.16148 | 16 ft | 16 kts | 270° |
| 2026-05-07 22:09 | 26.07494 | -80.16275 | 16 ft | 17 kts | 270° |
| 2026-05-07 22:10 | 26.07495 | -80.16406 | 16 ft | 17 kts | 270° |
| 2026-05-07 22:10 | 26.07496 | -80.16541 | 16 ft | 18 kts | 275° |
| 2026-05-07 22:10 | 26.07522 | -80.16641 | 16 ft | 11 kts | 333° |
| 2026-05-07 22:10 | 26.07596 | -80.16644 | 17 ft | 7 kts | 1° |
| 2026-05-07 22:11 | 26.07598 | -80.16644 | 17 ft | 0 kts | 1° |
| 2026-05-07 22:11 | 26.07601 | -80.16644 | 17 ft | 2 kts | 1° |
| 2026-05-07 22:12 | 26.07634 | -80.16642 | 17 ft | 7 kts | 1° |
| 2026-05-07 22:12 | 26.07693 | -80.16626 | 18 ft | 10 kts | 47° |
| 2026-05-07 22:12 | 26.07697 | -80.16553 | 18 ft | 10 kts | 91° |
| 2026-05-07 22:12 | 26.07695 | -80.16477 | 19 ft | 10 kts | 91° |
| 2026-05-07 22:13 | 26.07694 | -80.16400 | 20 ft | 11 kts | 91° |
| 2026-05-07 22:13 | 26.07692 | -80.16152 | 19 ft | 67 kts | 90° |
| 2026-05-07 22:13 | 26.07686 | -80.15372 | 16 ft | 131 kts | 90° |
| 2026-05-07 22:13 | 26.07674 | -80.14207 | 253 ft | 158 kts | 94° |
| 2026-05-07 22:14 | 26.07687 | -80.12971 | 870 ft | 160 kts | 89° |
| 2026-05-07 22:14 | 26.07712 | -80.11758 | 1526 ft | 158 kts | 91° |
| 2026-05-07 22:14 | 26.07733 | -80.10497 | 2028 ft | 172 kts | 90° |
| 2026-05-07 22:14 | 26.07753 | -80.09081 | 2360 ft | 194 kts | 90° |
| 2026-05-07 22:15 | 26.07774 | -80.07483 | 2635 ft | 219 kts | 89° |
| 2026-05-07 22:15 | 26.07794 | -80.05692 | 3028 ft | 244 kts | 89° |
| 2026-05-07 22:15 | 26.07813 | -80.03718 | 3481 ft | 268 kts | 89° |
| 2026-05-07 22:15 | 26.07978 | -80.01607 | 4183 ft | 279 kts | 76° |
| 2026-05-07 22:16 | 26.08651 | -79.99579 | 5065 ft | 282 kts | 59° |
| 2026-05-07 22:16 | 26.09759 | -79.97768 | 5960 ft | 284 kts | 52° |
| 2026-05-07 22:16 | 26.10935 | -79.95989 | 6825 ft | 287 kts | 53° |
| 2026-05-07 22:16 | 26.12121 | -79.94185 | 7658 ft | 290 kts | 53° |
| 2026-05-07 22:17 | 26.13311 | -79.92367 | 8510 ft | 292 kts | 53° |
| 2026-05-07 22:17 | 26.14510 | -79.90532 | 9343 ft | 294 kts | 54° |
| 2026-05-07 22:17 | 26.15724 | -79.88671 | 10139 ft | 298 kts | 54° |
| 2026-05-07 22:17 | 26.16979 | -79.86742 | 10453 ft | 319 kts | 54° |
| 2026-05-07 22:18 | 26.18312 | -79.84694 | 10668 ft | 340 kts | 54° |
| 2026-05-07 22:18 | 26.21174 | -79.80312 | 11781 ft | 356 kts | 53° |
| 2026-05-07 22:18 | 26.22644 | -79.78062 | 12402 ft | 361 kts | 53° |
| 2026-05-07 22:19 | 26.24130 | -79.75785 | 13086 ft | 365 kts | 53° |
| 2026-05-07 22:19 | 26.25629 | -79.73483 | 13774 ft | 368 kts | 52° |
| 2026-05-07 22:19 | 26.27138 | -79.71165 | 14372 ft | 371 kts | 53° |
| 2026-05-07 22:19 | 26.28659 | -79.68824 | 14958 ft | 375 kts | 52° |
| 2026-05-07 22:20 | 26.30342 | -79.66635 | 15532 ft | 377 kts | 44° |
| 2026-05-07 22:20 | 26.32178 | -79.64528 | 15901 ft | 380 kts | 44° |
| 2026-05-07 22:20 | 26.34024 | -79.62413 | 16008 ft | 380 kts | 44° |
| 2026-05-07 22:20 | 26.35865 | -79.60302 | 16040 ft | 380 kts | 44° |
| 2026-05-07 22:21 | 26.37709 | -79.58183 | 16035 ft | 380 kts | 44° |
| 2026-05-07 22:21 | 26.39546 | -79.56066 | 16033 ft | 379 kts | 44° |
| 2026-05-07 22:21 | 26.41382 | -79.53950 | 16032 ft | 379 kts | 44° |
| 2026-05-07 22:21 | 26.43219 | -79.51835 | 16032 ft | 380 kts | 44° |
| 2026-05-07 22:22 | 26.45058 | -79.49714 | 16028 ft | 380 kts | 44° |
| 2026-05-07 22:22 | 26.46894 | -79.47596 | 16034 ft | 380 kts | 44° |
| 2026-05-07 22:22 | 26.48733 | -79.45473 | 16029 ft | 380 kts | 44° |
| 2026-05-07 22:22 | 26.50575 | -79.43348 | 16030 ft | 381 kts | 44° |
| 2026-05-07 22:23 | 26.52393 | -79.41249 | 16032 ft | 381 kts | 44° |
| 2026-05-07 22:23 | 26.54236 | -79.39126 | 16031 ft | 380 kts | 42° |
| 2026-05-07 22:23 | 26.56265 | -79.37259 | 16032 ft | 377 kts | 31° |
| 2026-05-07 22:23 | 26.58497 | -79.35725 | 16033 ft | 377 kts | 28° |
| 2026-05-07 22:24 | 26.60738 | -79.34209 | 16033 ft | 377 kts | 29° |
| 2026-05-07 22:24 | 26.62980 | -79.32691 | 16032 ft | 376 kts | 29° |
| 2026-05-07 22:24 | 26.65221 | -79.31172 | 16032 ft | 376 kts | 29° |
| 2026-05-07 22:24 | 26.67467 | -79.29646 | 16033 ft | 376 kts | 29° |
| 2026-05-07 22:25 | 26.69708 | -79.28119 | 16032 ft | 376 kts | 29° |
| 2026-05-07 22:25 | 26.71947 | -79.26591 | 16036 ft | 377 kts | 29° |
| 2026-05-07 22:25 | 26.74183 | -79.25065 | 16033 ft | 376 kts | 29° |
| 2026-05-07 22:25 | 26.76389 | -79.23558 | 16039 ft | 376 kts | 28° |
| 2026-05-07 22:26 | 26.78632 | -79.22027 | 16085 ft | 379 kts | 28° |
| 2026-05-07 22:26 | 26.80898 | -79.20483 | 16710 ft | 382 kts | 28° |
| 2026-05-07 22:26 | 26.83177 | -79.18929 | 17339 ft | 385 kts | 28° |
| 2026-05-07 22:26 | 26.85473 | -79.17361 | 17954 ft | 388 kts | 28° |
| 2026-05-07 22:27 | 26.87786 | -79.15783 | 18522 ft | 391 kts | 28° |
| 2026-05-07 22:27 | 26.90123 | -79.14188 | 19030 ft | 395 kts | 28° |
| 2026-05-07 22:27 | 26.92485 | -79.12572 | 19530 ft | 399 kts | 28° |
| 2026-05-07 22:27 | 26.94864 | -79.10942 | 20026 ft | 403 kts | 28° |
| 2026-05-07 22:28 | 26.97269 | -79.09296 | 20519 ft | 407 kts | 27° |
| 2026-05-07 22:28 | 26.99670 | -79.07654 | 21004 ft | 411 kts | 27° |
| 2026-05-07 22:28 | 27.02121 | -79.05974 | 21494 ft | 415 kts | 27° |
| 2026-05-07 22:28 | 27.04597 | -79.04279 | 22012 ft | 418 kts | 27° |
| 2026-05-07 22:29 | 27.07097 | -79.02567 | 22466 ft | 422 kts | 27° |
| 2026-05-07 22:29 | 27.09617 | -79.00839 | 22922 ft | 426 kts | 27° |
| 2026-05-07 22:29 | 27.12160 | -78.99093 | 23366 ft | 430 kts | 27° |
| 2026-05-07 22:29 | 27.14722 | -78.97333 | 23766 ft | 434 kts | 27° |
| 2026-05-07 22:30 | 27.17302 | -78.95558 | 24136 ft | 437 kts | 27° |
| 2026-05-07 22:30 | 27.19897 | -78.93767 | 24517 ft | 439 kts | 27° |
| 2026-05-07 22:30 | 27.22512 | -78.91964 | 24901 ft | 441 kts | 27° |
| 2026-05-07 22:30 | 27.25141 | -78.90152 | 25283 ft | 444 kts | 27° |
| 2026-05-07 22:31 | 27.27784 | -78.88329 | 25646 ft | 446 kts | 26° |
| 2026-05-07 22:31 | 27.30437 | -78.86498 | 26009 ft | 448 kts | 26° |
| 2026-05-07 22:31 | 27.33101 | -78.84661 | 26369 ft | 451 kts | 26° |
| 2026-05-07 22:31 | 27.35783 | -78.82813 | 26743 ft | 453 kts | 26° |
| 2026-05-07 22:32 | 27.38520 | -78.81059 | 27076 ft | 451 kts | 20° |
| 2026-05-07 22:32 | 27.41401 | -78.79804 | 27412 ft | 447 kts | 11° |
| 2026-05-07 22:32 | 27.44429 | -78.79091 | 27773 ft | 443 kts | 2° |
| 2026-05-07 22:32 | 27.47496 | -78.78659 | 28108 ft | 445 kts | 2° |
| 2026-05-07 22:33 | 27.50578 | -78.78219 | 28450 ft | 447 kts | 2° |
| 2026-05-07 22:33 | 27.53673 | -78.77772 | 28784 ft | 449 kts | 2° |
| 2026-05-07 22:33 | 27.56778 | -78.77318 | 29109 ft | 451 kts | 2° |
| 2026-05-07 22:33 | 27.59903 | -78.76860 | 29433 ft | 453 kts | 2° |
| 2026-05-07 22:34 | 27.63041 | -78.76397 | 29745 ft | 456 kts | 2° |
| 2026-05-07 22:34 | 27.66194 | -78.75930 | 30039 ft | 458 kts | 2° |
| 2026-05-07 22:34 | 27.69365 | -78.75462 | 30296 ft | 460 kts | 2° |
| 2026-05-07 22:34 | 27.72544 | -78.74995 | 30551 ft | 462 kts | 2° |
| 2026-05-07 22:35 | 27.75700 | -78.74532 | 30801 ft | 464 kts | 2° |
| 2026-05-07 22:35 | 27.78911 | -78.74061 | 31059 ft | 465 kts | 2° |
| 2026-05-07 22:35 | 27.82127 | -78.73590 | 31367 ft | 465 kts | 2° |
| 2026-05-07 22:35 | 27.85338 | -78.73117 | 31745 ft | 464 kts | 2° |
| 2026-05-07 22:36 | 27.88541 | -78.72644 | 32125 ft | 463 kts | 2° |
| 2026-05-07 22:36 | 27.91738 | -78.72172 | 32507 ft | 462 kts | 1° |
| 2026-05-07 22:36 | 27.94928 | -78.71704 | 32859 ft | 462 kts | 1° |
| 2026-05-07 22:36 | 27.98114 | -78.71239 | 33224 ft | 461 kts | 1° |
| 2026-05-07 22:37 | 28.01307 | -78.70768 | 33611 ft | 461 kts | 1° |
| 2026-05-07 22:37 | 28.04448 | -78.70302 | 33995 ft | 460 kts | 1° |
| 2026-05-07 22:37 | 28.07624 | -78.69833 | 34340 ft | 459 kts | 1° |
| 2026-05-07 22:37 | 28.10793 | -78.69368 | 34694 ft | 457 kts | 1° |
| 2026-05-07 22:38 | 28.13943 | -78.68903 | 35045 ft | 456 kts | 1° |
| 2026-05-07 22:38 | 28.17088 | -78.68437 | 35392 ft | 454 kts | 1° |
| 2026-05-07 22:38 | 28.19164 | -78.68128 | 35613 ft | 454 kts | 2° |
| 2026-05-07 22:38 | 28.23306 | -78.67510 | 36050 ft | 452 kts | 1° |
| 2026-05-07 22:39 | 28.26418 | -78.67047 | 36371 ft | 450 kts | 1° |
| 2026-05-07 22:39 | 28.29523 | -78.66587 | 36684 ft | 449 kts | 1° |
| 2026-05-07 22:39 | 28.32623 | -78.66126 | 36953 ft | 449 kts | 1° |
| 2026-05-07 22:40 | 28.37805 | -78.65353 | 37031 ft | 447 kts | 1° |
| 2026-05-07 22:40 | 28.43923 | -78.64442 | 37027 ft | 446 kts | 1° |
| 2026-05-07 22:41 | 28.50079 | -78.63541 | 37031 ft | 446 kts | 1° |
| 2026-05-07 22:41 | 28.56239 | -78.62627 | 37025 ft | 447 kts | 1° |
| 2026-05-07 22:42 | 28.62408 | -78.61700 | 37024 ft | 447 kts | 1° |
| 2026-05-07 22:42 | 28.68572 | -78.60773 | 37024 ft | 447 kts | 1° |
| 2026-05-07 22:43 | 28.74741 | -78.59842 | 37026 ft | 447 kts | 1° |
| 2026-05-07 22:43 | 28.80910 | -78.58918 | 37038 ft | 447 kts | 0° |
| 2026-05-07 22:44 | 28.87082 | -78.58003 | 37032 ft | 447 kts | 0° |
| 2026-05-07 22:44 | 28.93263 | -78.57086 | 37024 ft | 448 kts | 0° |
| 2026-05-07 22:45 | 28.99448 | -78.56162 | 37023 ft | 448 kts | 0° |
| 2026-05-07 22:45 | 29.05592 | -78.55235 | 37053 ft | 448 kts | 0° |
| 2026-05-07 22:46 | 29.11777 | -78.54296 | 37038 ft | 448 kts | 0° |
| 2026-05-07 22:46 | 29.17960 | -78.53359 | 37030 ft | 448 kts | 0° |
| 2026-05-07 22:47 | 29.24142 | -78.52424 | 37023 ft | 448 kts | 0° |
| 2026-05-07 22:47 | 29.30322 | -78.51488 | 37020 ft | 448 kts | 0° |
| 2026-05-07 22:48 | 29.36505 | -78.50556 | 37027 ft | 448 kts | 360° |
| 2026-05-07 22:48 | 29.42700 | -78.49626 | 37017 ft | 449 kts | 360° |
| 2026-05-07 22:49 | 29.48856 | -78.48865 | 37005 ft | 442 kts | 352° |
| 2026-05-07 22:49 | 29.54923 | -78.49413 | 37005 ft | 436 kts | 347° |
| 2026-05-07 22:50 | 29.60970 | -78.50066 | 37004 ft | 436 kts | 347° |
| 2026-05-07 22:50 | 29.67026 | -78.50725 | 37008 ft | 437 kts | 347° |
| 2026-05-07 22:51 | 29.73090 | -78.51380 | 36998 ft | 438 kts | 347° |
| 2026-05-07 22:51 | 29.79177 | -78.52031 | 36995 ft | 439 kts | 347° |
| 2026-05-07 22:52 | 29.85217 | -78.52682 | 36994 ft | 439 kts | 347° |
| 2026-05-07 22:52 | 29.91315 | -78.53348 | 37017 ft | 439 kts | 346° |
| 2026-05-07 22:53 | 29.97407 | -78.54013 | 37001 ft | 440 kts | 346° |
| 2026-05-07 22:53 | 30.03509 | -78.54673 | 37002 ft | 440 kts | 346° |
| 2026-05-07 22:54 | 30.09615 | -78.55334 | 37000 ft | 440 kts | 346° |
| 2026-05-07 22:54 | 30.15712 | -78.55773 | 36991 ft | 449 kts | 355° |
| 2026-05-07 22:55 | 30.21984 | -78.54924 | 36994 ft | 454 kts | 359° |
| 2026-05-07 22:55 | 30.28267 | -78.54013 | 36981 ft | 454 kts | 359° |
| 2026-05-07 22:56 | 30.34542 | -78.53106 | 36988 ft | 454 kts | 359° |
| 2026-05-07 22:56 | 30.40824 | -78.52209 | 36989 ft | 454 kts | 359° |
| 2026-05-07 22:57 | 30.47060 | -78.51283 | 36999 ft | 455 kts | 360° |
| 2026-05-07 22:57 | 30.53336 | -78.50245 | 37000 ft | 455 kts | 0° |
| 2026-05-07 22:58 | 30.59596 | -78.49188 | 36991 ft | 454 kts | 0° |
| 2026-05-07 22:58 | 30.65858 | -78.48159 | 36988 ft | 453 kts | 360° |
| 2026-05-07 22:59 | 30.72106 | -78.47154 | 36980 ft | 453 kts | 360° |
| 2026-05-07 22:59 | 30.78314 | -78.46149 | 36995 ft | 453 kts | 359° |
| 2026-05-07 23:00 | 30.84554 | -78.45130 | 36986 ft | 453 kts | 359° |
| 2026-05-07 23:00 | 30.90796 | -78.44123 | 36976 ft | 452 kts | 359° |
| 2026-05-07 23:01 | 30.97043 | -78.43115 | 36974 ft | 452 kts | 359° |
| 2026-05-07 23:01 | 31.03280 | -78.42094 | 36987 ft | 452 kts | 359° |
| 2026-05-07 23:02 | 31.09477 | -78.41072 | 36985 ft | 452 kts | 359° |
| 2026-05-07 23:02 | 31.15711 | -78.40041 | 36974 ft | 451 kts | 359° |
| 2026-05-07 23:03 | 31.21940 | -78.39015 | 36972 ft | 451 kts | 359° |
| 2026-05-07 23:03 | 31.28162 | -78.38000 | 36992 ft | 451 kts | 358° |
| 2026-05-07 23:04 | 31.34386 | -78.36973 | 36989 ft | 451 kts | 358° |
| 2026-05-07 23:04 | 31.40571 | -78.35953 | 36972 ft | 451 kts | 358° |
| 2026-05-07 23:05 | 31.46791 | -78.34926 | 36967 ft | 451 kts | 358° |
| 2026-05-07 23:05 | 31.53023 | -78.33898 | 36964 ft | 451 kts | 358° |
| 2026-05-07 23:06 | 31.59248 | -78.32870 | 36974 ft | 452 kts | 357° |
| 2026-05-07 23:06 | 31.65448 | -78.31841 | 36959 ft | 453 kts | 357° |
| 2026-05-07 23:07 | 31.71698 | -78.30804 | 36948 ft | 454 kts | 357° |
| 2026-05-07 23:07 | 31.77955 | -78.29764 | 36942 ft | 454 kts | 358° |
| 2026-05-07 23:08 | 31.84217 | -78.28721 | 36967 ft | 454 kts | 357° |
| 2026-05-07 23:08 | 31.90479 | -78.27682 | 36954 ft | 455 kts | 357° |
| 2026-05-07 23:09 | 31.96755 | -78.26636 | 36941 ft | 455 kts | 357° |
| 2026-05-07 23:09 | 32.03025 | -78.25593 | 36940 ft | 455 kts | 357° |
| 2026-05-07 23:10 | 32.09259 | -78.24632 | 36948 ft | 453 kts | 355° |
| 2026-05-07 23:10 | 32.15508 | -78.23753 | 36933 ft | 452 kts | 355° |
| 2026-05-07 23:11 | 32.21764 | -78.22865 | 36926 ft | 453 kts | 355° |
| 2026-05-07 23:11 | 32.28022 | -78.21949 | 36926 ft | 453 kts | 355° |
| 2026-05-07 23:12 | 32.34283 | -78.21031 | 36948 ft | 454 kts | 355° |
| 2026-05-07 23:12 | 32.40527 | -78.20111 | 36919 ft | 455 kts | 355° |
| 2026-05-07 23:13 | 32.46813 | -78.19194 | 36908 ft | 456 kts | 355° |
| 2026-05-07 23:13 | 32.53113 | -78.18270 | 36908 ft | 456 kts | 355° |
| 2026-05-07 23:14 | 32.59427 | -78.17339 | 36909 ft | 457 kts | 355° |
| 2026-05-07 23:14 | 32.65754 | -78.16401 | 36914 ft | 458 kts | 355° |
| 2026-05-07 23:15 | 32.72061 | -78.15470 | 36893 ft | 460 kts | 355° |
| 2026-05-07 23:15 | 32.78420 | -78.14530 | 36895 ft | 460 kts | 355° |
| 2026-05-07 23:16 | 32.84788 | -78.13587 | 36894 ft | 461 kts | 355° |
| 2026-05-07 23:16 | 32.91162 | -78.12644 | 36888 ft | 461 kts | 355° |
| 2026-05-07 23:17 | 32.97536 | -78.11696 | 36897 ft | 462 kts | 355° |
| 2026-05-07 23:17 | 33.03912 | -78.10742 | 36897 ft | 462 kts | 355° |
| 2026-05-07 23:18 | 33.10294 | -78.09788 | 36902 ft | 462 kts | 355° |
| 2026-05-07 23:18 | 33.16648 | -78.08843 | 36886 ft | 457 kts | 354° |
| 2026-05-07 23:19 | 33.22954 | -78.07911 | 36867 ft | 457 kts | 354° |
| 2026-05-07 23:19 | 33.29279 | -78.06962 | 36872 ft | 458 kts | 354° |
| 2026-05-07 23:20 | 33.35565 | -78.06016 | 36874 ft | 458 kts | 354° |
| 2026-05-07 23:20 | 33.41904 | -78.05067 | 36907 ft | 458 kts | 354° |
| 2026-05-07 23:21 | 33.48241 | -78.04113 | 36899 ft | 458 kts | 354° |
| 2026-05-07 23:21 | 33.54575 | -78.03157 | 36891 ft | 458 kts | 354° |
| 2026-05-07 23:22 | 33.60899 | -78.02206 | 36890 ft | 458 kts | 354° |
| 2026-05-07 23:22 | 33.67177 | -78.01264 | 36869 ft | 457 kts | 353° |
| 2026-05-07 23:23 | 33.73493 | -78.00307 | 36856 ft | 457 kts | 353° |
| 2026-05-07 23:23 | 33.79819 | -77.99347 | 36851 ft | 458 kts | 353° |
| 2026-05-07 23:24 | 33.86146 | -77.98392 | 36854 ft | 459 kts | 353° |
| 2026-05-07 23:24 | 33.92483 | -77.97525 | 36873 ft | 456 kts | 351° |
| 2026-05-07 23:25 | 33.98802 | -77.96865 | 36865 ft | 455 kts | 350° |
| 2026-05-07 23:25 | 34.05090 | -77.96245 | 36862 ft | 456 kts | 351° |
| 2026-05-07 23:26 | 34.11419 | -77.95577 | 36852 ft | 457 kts | 351° |
| 2026-05-07 23:26 | 34.16727 | -77.94988 | 36890 ft | 457 kts | 351° |
| 2026-05-07 23:27 | 34.26187 | -77.93931 | 36873 ft | 456 kts | 351° |
| 2026-05-07 23:27 | 34.32505 | -77.93237 | 36868 ft | 456 kts | 351° |
| 2026-05-07 23:28 | 34.38829 | -77.92535 | 36868 ft | 456 kts | 351° |
| 2026-05-07 23:28 | 34.45160 | -77.91836 | 36857 ft | 455 kts | 350° |
| 2026-05-07 23:29 | 34.51473 | -77.91142 | 36862 ft | 456 kts | 350° |
| 2026-05-07 23:29 | 34.57801 | -77.90433 | 36867 ft | 456 kts | 350° |
| 2026-05-07 23:30 | 34.64097 | -77.89738 | 36871 ft | 456 kts | 350° |
| 2026-05-07 23:30 | 34.70416 | -77.89042 | 36876 ft | 456 kts | 350° |
| 2026-05-07 23:31 | 34.76734 | -77.88337 | 36874 ft | 456 kts | 350° |
| 2026-05-07 23:31 | 34.83052 | -77.87631 | 36874 ft | 456 kts | 350° |
| 2026-05-07 23:32 | 34.89381 | -77.86928 | 36956 ft | 456 kts | 350° |
| 2026-05-07 23:32 | 34.95703 | -77.86217 | 36892 ft | 455 kts | 350° |
| 2026-05-07 23:33 | 35.01973 | -77.85509 | 36894 ft | 455 kts | 350° |
| 2026-05-07 23:33 | 35.08297 | -77.84801 | 36898 ft | 456 kts | 350° |
| 2026-05-07 23:34 | 35.14623 | -77.84091 | 36949 ft | 456 kts | 349° |
| 2026-05-07 23:34 | 35.20952 | -77.83379 | 36908 ft | 456 kts | 349° |
| 2026-05-07 23:35 | 35.27232 | -77.82670 | 36906 ft | 456 kts | 349° |
| 2026-05-07 23:35 | 35.33550 | -77.81960 | 36905 ft | 456 kts | 349° |
| 2026-05-07 23:36 | 35.39873 | -77.81252 | 36907 ft | 456 kts | 349° |
| 2026-05-07 23:36 | 35.46201 | -77.80521 | 36919 ft | 458 kts | 351° |
| 2026-05-07 23:37 | 35.52565 | -77.79484 | 36920 ft | 464 kts | 353° |
| 2026-05-07 23:37 | 35.58956 | -77.78267 | 36916 ft | 464 kts | 353° |
| 2026-05-07 23:38 | 35.65343 | -77.77093 | 36931 ft | 463 kts | 352° |
| 2026-05-07 23:38 | 35.71704 | -77.75979 | 36907 ft | 461 kts | 352° |
| 2026-05-07 23:39 | 35.78066 | -77.74880 | 36913 ft | 462 kts | 352° |
| 2026-05-07 23:39 | 35.84391 | -77.73785 | 36925 ft | 463 kts | 352° |
| 2026-05-07 23:40 | 35.90767 | -77.72664 | 36949 ft | 462 kts | 352° |
| 2026-05-07 23:40 | 35.97123 | -77.71537 | 36944 ft | 461 kts | 352° |
| 2026-05-07 23:41 | 36.03480 | -77.70420 | 36945 ft | 461 kts | 352° |
| 2026-05-07 23:41 | 36.09829 | -77.69307 | 36945 ft | 461 kts | 352° |
| 2026-05-07 23:42 | 36.16172 | -77.68180 | 36911 ft | 457 kts | 351° |
| 2026-05-07 23:42 | 36.22411 | -77.67062 | 36903 ft | 456 kts | 351° |
| 2026-05-07 23:43 | 36.28702 | -77.65950 | 36904 ft | 457 kts | 351° |
| 2026-05-07 23:43 | 36.35010 | -77.64838 | 36957 ft | 458 kts | 351° |
| 2026-05-07 23:44 | 36.41331 | -77.63716 | 36947 ft | 459 kts | 351° |
| 2026-05-07 23:44 | 36.47658 | -77.62583 | 36945 ft | 459 kts | 351° |
| 2026-05-07 23:45 | 36.53974 | -77.61480 | 36944 ft | 458 kts | 350° |
| 2026-05-07 23:45 | 36.60291 | -77.60498 | 36999 ft | 457 kts | 350° |
| 2026-05-07 23:46 | 36.66533 | -77.59548 | 36933 ft | 454 kts | 349° |
| 2026-05-07 23:46 | 36.72824 | -77.58567 | 36939 ft | 457 kts | 350° |
| 2026-05-07 23:47 | 36.79153 | -77.57599 | 36945 ft | 458 kts | 350° |
| 2026-05-07 23:47 | 36.85493 | -77.56616 | 36954 ft | 459 kts | 350° |
| 2026-05-07 23:48 | 36.91819 | -77.55587 | 36941 ft | 458 kts | 351° |
| 2026-05-07 23:48 | 36.98146 | -77.54564 | 36945 ft | 458 kts | 350° |
| 2026-05-07 23:49 | 37.04441 | -77.53559 | 36948 ft | 459 kts | 350° |
| 2026-05-07 23:49 | 37.10788 | -77.52539 | 36479 ft | 459 kts | 351° |
| 2026-05-07 23:50 | 37.13964 | -77.52027 | 35559 ft | 463 kts | 350° |
| 2026-05-07 23:50 | 37.17180 | -77.51514 | 34838 ft | 464 kts | 350° |
| 2026-05-07 23:50 | 37.20375 | -77.50996 | 34199 ft | 463 kts | 350° |
| 2026-05-07 23:50 | 37.23570 | -77.50478 | 33412 ft | 463 kts | 350° |
| 2026-05-07 23:51 | 37.26769 | -77.49961 | 32546 ft | 464 kts | 351° |
| 2026-05-07 23:51 | 37.29982 | -77.49444 | 31727 ft | 466 kts | 352° |
| 2026-05-07 23:51 | 37.33200 | -77.48924 | 30885 ft | 467 kts | 352° |
| 2026-05-07 23:51 | 37.36360 | -77.48403 | 30299 ft | 462 kts | 353° |
| 2026-05-07 23:52 | 37.39532 | -77.47878 | 29629 ft | 457 kts | 353° |
| 2026-05-07 23:52 | 37.42662 | -77.47360 | 28918 ft | 452 kts | 353° |
| 2026-05-07 23:52 | 37.45768 | -77.46851 | 28237 ft | 447 kts | 353° |
| 2026-05-07 23:52 | 37.48832 | -77.46347 | 27760 ft | 439 kts | 353° |
| 2026-05-07 23:53 | 37.51830 | -77.45856 | 27247 ft | 431 kts | 353° |
| 2026-05-07 23:53 | 37.54797 | -77.45379 | 26736 ft | 426 kts | 354° |
| 2026-05-07 23:53 | 37.57725 | -77.44915 | 26151 ft | 423 kts | 355° |
| 2026-05-07 23:53 | 37.60647 | -77.44188 | 25591 ft | 430 kts | 1° |
| 2026-05-07 23:54 | 37.63540 | -77.43308 | 25039 ft | 427 kts | 2° |
| 2026-05-07 23:54 | 37.66422 | -77.42417 | 24511 ft | 425 kts | 2° |
| 2026-05-07 23:54 | 37.69285 | -77.41527 | 24002 ft | 422 kts | 2° |
| 2026-05-07 23:54 | 37.72127 | -77.40646 | 23516 ft | 419 kts | 2° |
| 2026-05-07 23:55 | 37.74948 | -77.39770 | 22977 ft | 416 kts | 3° |
| 2026-05-07 23:55 | 37.77756 | -77.38898 | 22461 ft | 413 kts | 3° |
| 2026-05-07 23:55 | 37.80536 | -77.38037 | 21965 ft | 410 kts | 3° |
| 2026-05-07 23:55 | 37.83298 | -77.37181 | 21479 ft | 407 kts | 3° |
| 2026-05-07 23:56 | 37.86040 | -77.36332 | 20993 ft | 404 kts | 3° |
| 2026-05-07 23:56 | 37.88726 | -77.35505 | 20518 ft | 400 kts | 4° |
| 2026-05-07 23:56 | 37.91427 | -77.34673 | 20036 ft | 397 kts | 4° |
| 2026-05-07 23:56 | 37.94112 | -77.33847 | 19557 ft | 394 kts | 4° |
| 2026-05-07 23:57 | 37.96771 | -77.33029 | 19064 ft | 391 kts | 4° |
| 2026-05-07 23:57 | 37.99405 | -77.32216 | 18583 ft | 388 kts | 5° |
| 2026-05-07 23:57 | 38.01990 | -77.31420 | 18106 ft | 386 kts | 5° |
| 2026-05-07 23:57 | 38.04595 | -77.30620 | 17582 ft | 383 kts | 5° |
| 2026-05-07 23:58 | 38.07180 | -77.29826 | 17055 ft | 381 kts | 5° |
| 2026-05-07 23:58 | 38.09749 | -77.29030 | 16542 ft | 379 kts | 5° |
| 2026-05-07 23:58 | 38.12302 | -77.28229 | 16048 ft | 377 kts | 5° |
| 2026-05-07 23:58 | 38.14843 | -77.27426 | 15567 ft | 375 kts | 6° |
| 2026-05-07 23:59 | 38.17371 | -77.26628 | 15090 ft | 373 kts | 6° |
| 2026-05-07 23:59 | 38.19889 | -77.25838 | 14649 ft | 371 kts | 6° |
| 2026-05-07 23:59 | 38.22387 | -77.25001 | 14206 ft | 371 kts | 7° |
| 2026-05-07 23:59 | 38.24862 | -77.24087 | 13747 ft | 370 kts | 9° |
| 2026-05-08 00:00 | 38.27317 | -77.23134 | 13253 ft | 368 kts | 9° |
| 2026-05-08 00:00 | 38.29752 | -77.22176 | 12776 ft | 364 kts | 9° |
| 2026-05-08 00:00 | 38.32144 | -77.21240 | 12263 ft | 363 kts | 9° |
| 2026-05-08 00:00 | 38.34548 | -77.20309 | 11789 ft | 359 kts | 9° |
| 2026-05-08 00:01 | 38.36928 | -77.19396 | 11348 ft | 355 kts | 9° |
| 2026-05-08 00:01 | 38.39283 | -77.18492 | 10907 ft | 352 kts | 9° |
| 2026-05-08 00:01 | 38.41620 | -77.17587 | 10488 ft | 348 kts | 9° |
| 2026-05-08 00:01 | 38.43923 | -77.16697 | 10110 ft | 343 kts | 9° |
| 2026-05-08 00:02 | 38.46177 | -77.15827 | 10003 ft | 331 kts | 9° |
| 2026-05-08 00:02 | 38.48325 | -77.14987 | 10037 ft | 314 kts | 8° |
| 2026-05-08 00:02 | 38.50393 | -77.14179 | 10041 ft | 309 kts | 8° |
| 2026-05-08 00:02 | 38.52443 | -77.13390 | 10039 ft | 307 kts | 8° |
| 2026-05-08 00:03 | 38.54488 | -77.12606 | 10039 ft | 307 kts | 8° |
| 2026-05-08 00:03 | 38.56505 | -77.11834 | 10037 ft | 306 kts | 8° |
| 2026-05-08 00:03 | 38.58547 | -77.11053 | 10036 ft | 307 kts | 8° |
| 2026-05-08 00:03 | 38.60588 | -77.10268 | 10019 ft | 306 kts | 8° |
| 2026-05-08 00:04 | 38.62617 | -77.09485 | 9693 ft | 303 kts | 8° |
| 2026-05-08 00:04 | 38.64626 | -77.08708 | 9386 ft | 298 kts | 9° |
| 2026-05-08 00:04 | 38.66597 | -77.07943 | 9061 ft | 293 kts | 9° |
| 2026-05-08 00:04 | 38.68533 | -77.07232 | 8694 ft | 286 kts | 5° |
| 2026-05-08 00:05 | 38.70469 | -77.06931 | 8350 ft | 277 kts | 357° |
| 2026-05-08 00:05 | 38.72384 | -77.06743 | 7977 ft | 274 kts | 358° |
| 2026-05-08 00:05 | 38.74268 | -77.06556 | 7603 ft | 270 kts | 358° |
| 2026-05-08 00:05 | 38.76103 | -77.06702 | 7266 ft | 260 kts | 345° |
| 2026-05-08 00:06 | 38.77794 | -77.07407 | 6908 ft | 253 kts | 332° |
| 2026-05-08 00:06 | 38.79297 | -77.08546 | 6523 ft | 250 kts | 326° |
| 2026-05-08 00:06 | 38.80753 | -77.09745 | 6108 ft | 248 kts | 327° |
| 2026-05-08 00:06 | 38.82209 | -77.10937 | 5618 ft | 248 kts | 327° |
| 2026-05-08 00:07 | 38.83574 | -77.12205 | 5140 ft | 249 kts | 318° |
| 2026-05-08 00:07 | 38.84823 | -77.13763 | 4624 ft | 252 kts | 317° |
| 2026-05-08 00:07 | 38.86083 | -77.15335 | 4122 ft | 253 kts | 317° |
| 2026-05-08 00:07 | 38.87321 | -77.16876 | 4030 ft | 252 kts | 316° |
| 2026-05-08 00:08 | 38.88587 | -77.18452 | 4031 ft | 255 kts | 316° |
| 2026-05-08 00:08 | 38.89861 | -77.20037 | 4031 ft | 255 kts | 316° |
| 2026-05-08 00:08 | 38.91131 | -77.21620 | 3936 ft | 253 kts | 316° |
| 2026-05-08 00:08 | 38.92428 | -77.23059 | 3748 ft | 239 kts | 329° |
| 2026-05-08 00:09 | 38.93980 | -77.23560 | 3608 ft | 228 kts | 2° |
| 2026-05-08 00:09 | 38.95433 | -77.22915 | 3482 ft | 220 kts | 32° |
| 2026-05-08 00:09 | 38.96571 | -77.21668 | 3372 ft | 211 kts | 44° |
| 2026-05-08 00:09 | 38.97380 | -77.20136 | 3160 ft | 209 kts | 68° |
| 2026-05-08 00:10 | 38.97717 | -77.18330 | 3037 ft | 210 kts | 89° |
| 2026-05-08 00:10 | 38.97512 | -77.16494 | 3020 ft | 213 kts | 116° |
| 2026-05-08 00:10 | 38.96576 | -77.15036 | 3041 ft | 214 kts | 141° |
| 2026-05-08 00:10 | 38.95406 | -77.13933 | 3026 ft | 201 kts | 149° |
| 2026-05-08 00:11 | 38.94311 | -77.12910 | 2891 ft | 185 kts | 142° |
| 2026-05-08 00:11 | 38.93360 | -77.11894 | 2745 ft | 170 kts | 144° |
| 2026-05-08 00:11 | 38.92370 | -77.11057 | 2392 ft | 171 kts | 151° |
| 2026-05-08 00:11 | 38.91384 | -77.10217 | 1997 ft | 168 kts | 146° |
| 2026-05-08 00:12 | 38.90709 | -77.09009 | 1623 ft | 169 kts | 116° |
| 2026-05-08 00:12 | 38.90307 | -77.07623 | 1249 ft | 160 kts | 114° |
| 2026-05-08 00:12 | 38.89789 | -77.06484 | 1048 ft | 137 kts | 137° |
| 2026-05-08 00:12 | 38.89106 | -77.05690 | 824 ft | 127 kts | 142° |
| 2026-05-08 00:13 | 38.88462 | -77.04950 | 632 ft | 122 kts | 144° |
| 2026-05-08 00:13 | 38.87815 | -77.04262 | 442 ft | 119 kts | 154° |
| 2026-05-08 00:13 | 38.87035 | -77.03961 | 259 ft | 118 kts | 174° |
| 2026-05-08 00:13 | 38.86227 | -77.03880 | 85 ft | 116 kts | 176° |
| 2026-05-08 00:14 | 38.85469 | -77.03806 | 29 ft | 92 kts | 175° |
| 2026-05-08 00:14 | 38.85106 | -77.03769 | 24 ft | 28 kts | 176° |
| 2026-05-08 00:14 | 38.84994 | -77.03764 | 24 ft | 22 kts | 179° |
| 2026-05-08 00:14 | 38.84880 | -77.03831 | 23 ft | 12 kts | 253° |
| 2026-05-08 00:15 | 38.84878 | -77.03849 | 24 ft | 0 kts | 264° |
| 2026-05-08 00:16 | 38.84878 | -77.03853 | 26 ft | 1 kts | 264° |
| 2026-05-08 00:16 | 38.84879 | -77.03865 | 25 ft | 2 kts | 277° |
| 2026-05-08 00:16 | 38.84886 | -77.03884 | 24 ft | 3 kts | 303° |
| 2026-05-08 00:16 | 38.84903 | -77.03910 | 24 ft | 4 kts | 308° |
| 2026-05-08 00:17 | 38.84928 | -77.03943 | 24 ft | 6 kts | 327° |
| 2026-05-08 00:17 | 38.84973 | -77.03960 | 26 ft | 8 kts | 353° |
| 2026-05-08 00:17 | 38.85032 | -77.03964 | 24 ft | 9 kts | 356° |
| 2026-05-08 00:17 | 38.85100 | -77.03970 | 24 ft | 10 kts | 355° |
| 2026-05-08 00:18 | 38.85176 | -77.03978 | 24 ft | 11 kts | 356° |
| 2026-05-08 00:18 | 38.85259 | -77.03986 | 24 ft | 12 kts | 355° |
| 2026-05-08 00:18 | 38.85348 | -77.03993 | 24 ft | 13 kts | 356° |
| 2026-05-08 00:18 | 38.85443 | -77.04004 | 24 ft | 14 kts | 355° |
| 2026-05-08 00:19 | 38.85536 | -77.04021 | 26 ft | 12 kts | 324° |
| 2026-05-08 00:19 | 38.85534 | -77.04116 | 24 ft | 9 kts | 253° |
| 2026-05-08 00:19 | 38.85561 | -77.04161 | 24 ft | 5 kts | 333° |
| 2026-05-08 00:19 | 38.85576 | -77.04170 | 24 ft | 2 kts | 335° |
| 2026-05-08 00:20 | 38.85577 | -77.04171 | 24 ft | 0 kts | 335° |